Aeroporto :
LOGIN :

Iscrizione | Disclaimer

   EN    FR    IT 

 










Sommario :    VFR   VFR Marginale   IFR   IFR Intensivo   IFR Molto Intensivo
Visibilità : 
Base nubi : 
>= 8 km
>= 3000ft
5 / 8 km
1000 / 3000 ft
1500m / 5 km
500 / 1000 ft
800 / 1500m
200 / 500 ft
< 800m
< 200 ft
Simboli :   Temporali  Nebbia  Neve Forte  Precipitazioni Forti  Vento > 20 kt
SIGMETs :   Varie  Temporali  Ghiacco  Turbolenza  Onda orograficha  Ceneri Vulcaniche






- Altitudine del aeroporto : 697 ft
- Codice IATA : PEG


LIRZ - San Edigio Perugia

ULTIMO METAR :
  • 150434Z AUTO VRB01KT 6000 BKN180/// 06/05 Q1015

METARs OBSOLETI :
  • 150419Z AUTO 29002KT 4900 BR BKN180/// 06/05 Q1015
  • 150350Z AUTO 34003KT 290V010 5000 BR BKN180/// 06/05 Q1015
  • 150332Z AUTO 02004KT 4100 BR BKN180/// BKN220/// 05/05 Q1014
  • 150316Z AUTO VRB02KT 5000 BR SCT190/// BKN220/// 05/05 Q1014
  • 150151Z AUTO 10003KT 4900 BR BKN210/// 06/06 Q1014

TAF TAF LIRZ
Valido dal 15 a 00 ore il 16 a 00 ore UTC


142300Z 1500/1524 VRB05KT 7000 BKN035
TEMPO 1421/1507 3000 BR



MetMap, La meteo Aeronautica in un colpo d'occhio ! - Copyright ORBIFLY Dicembre 2007 - Disclaimer

ORBIFLY MET'MAP TEAM :

Programmazione e sviluppo : Alexandra Zaïnal
Concezione : Baudouin d'Aumeries
Aiuto per la programmazione : Marc-Olivier Méhu
Supporto tecnico e logistico : Manuel Goepfert
Aiuto per la traduzione : Arnaldo La Scala

Contatto : metmap@orbifly.com




FONTI E CREDITI :

   NOAA